Main page
METAR-TAF:

METAR-TAF

Airports :

Vigo–Peinador Airport

Vigo, Spain

latitude: 42-13N, longitude: 008-38W, elevation: 264 m

Current weather observation

The report was made 24 minutes ago, at 20:30 UTC
Wind 4 kt from variable directions with gusts up to 15 kt
Temperature 11°C
Humidity 50%
Pressure 1026 hPa
Visibility 10 km or more
no clouds below 1500 m and no cumulonimbus

METAR: LEVX 212030Z VRB04G15KT CAVOK 11/01 Q1026 NOSIG

Time: 21:54 (20:54 UTC)

Forecast

The report was made 3 hours and 54 minutes ago, at 17:00 UTC
Forecast valid from 21 at 18 UTC to 22 at 18 UTC
Wind 7 kt from the East
Visibility 10 km or more
no clouds below 1500 m and no cumulonimbus

TAF: LEVX 211700Z 2118/2218 10007KT CAVOK TX13/2215Z TN01/2206Z

Weather observations and forecasts of more than 4000 airports (METAR and TAF reports).

The available stations are represented by yellow and red dots on the map.

Hover mouse over dot to see the name of the station.

Then click to see weather observations and forecasts.

To change the map : click on the green buttons with a black cross to zoom in, on the green button with a dash to zoom out, or on the green arrows for adjacent maps.


METAR-TAF: